KHZE

Mercer County Regional Airport

Hazen, North Dakota, USA
METAR KHZE 190335Z AUTO 25007KT 10SM CLR 03/M01 A2962 RMK AO2
Observed Flight Rules
Jan-19 @ 03:35 UTC (13 minutes ago) Visual Flight Rules
Wind Visibility Clouds
250° at 7 knots 10 miles
  • Clear skies
Temperatures Readings
Current 3°C / 37°F
Dewpoint -1°C / 30°F
Humidity 75%
Altimeter 29.62" Hg
Pressure 1003 hPa
Elevation 553
METAR KHZE 190335Z AUTO 25007KT 10SM CLR 03/M01 A2962 RMK AO2
Observed Flight Rules
Jan-19 @ 03:35 UTC
(13 minutes ago)
VFR
Wind Visibility
250° at 7 knots 10 miles
Clouds
  • Clear skies
Temperature Dewpoint
3°C / 37°F -1°C / 30°F
Humidity Altimeter Pressure
75% 29.62" Hg 1003 hPa